Time;durP1;ratioP1;P1;durP2;ratioP2;P2;SDS_P1;SDS_P2;PMS_P1;PMS_P2;Temp;Humidity;BMP_temperature;BMP_pressure;BME280_temperature;BME280_humidity;BME280_pressure;Samples;Min_cycle;Max_cycle;Signal;HPM_P1;HPM_P2
2022/05/03 00:00:18;;;;;;;10.85;7.13;;;;;;;14.39;57.03;99938.06;5041423;28;20036;-92
2022/05/03 00:03:11;;;;;;;9.18;7.50;;;;;;;14.31;57.50;99938.03;5058205;28;20550;-92
2022/05/03 00:06:03;;;;;;;7.95;7.15;;;;;;;14.16;58.04;99945.84;5057907;28;20113;-92
2022/05/03 00:08:42;;;;;;;8.68;7.50;;;;;;;14.19;57.98;99939.34;5041346;28;20220;-92
2022/05/03 00:11:27;;;;;;;9.07;6.90;;;;;;;14.29;57.53;99928.44;5041970;28;20089;-92
2022/05/03 00:14:18;;;;;;;8.10;7.25;;;;;;;14.23;57.95;99931.78;5075802;28;20150;-93
2022/05/03 00:16:44;;;;;;;7.65;6.80;;;;;;;14.27;58.08;99933.97;5041828;28;20017;-93
2022/05/03 00:19:10;;;;;;;7.63;6.75;;;;;;;14.23;57.89;99934.47;5058049;28;20107;-92
2022/05/03 00:21:37;;;;;;;7.72;6.85;;;;;;;14.14;58.37;99928.19;5057868;28;20066;-92
2022/05/03 00:24:03;;;;;;;10.07;7.78;;;;;;;14.12;58.58;99922.97;5041069;28;20024;-93
2022/05/03 00:26:29;;;;;;;9.48;6.88;;;;;;;14.17;58.41;99930.56;5057686;28;20378;-92
2022/05/03 00:28:55;;;;;;;7.70;6.90;;;;;;;14.20;58.33;99930.25;5040713;28;20029;-93
2022/05/03 00:31:21;;;;;;;8.70;7.40;;;;;;;14.17;58.06;99925.16;5040910;28;20542;-92
2022/05/03 00:33:47;;;;;;;8.93;6.80;;;;;;;14.11;58.56;99923.97;5040916;28;20115;-92
2022/05/03 00:36:12;;;;;;;9.40;7.05;;;;;;;14.09;59.11;99922.44;5040980;28;20028;-93
2022/05/03 00:38:38;;;;;;;7.53;6.80;;;;;;;14.11;58.33;99925.81;5057613;28;20071;-92
2022/05/03 00:41:05;;;;;;;8.77;6.75;;;;;;;14.08;58.21;99915.38;5057342;28;20396;-90
2022/05/03 00:43:39;;;;;;;8.38;7.18;;;;;;;14.03;59.05;99915.88;5075341;28;20370;-92
2022/05/03 00:46:14;;;;;;;8.98;6.47;;;;;;;14.03;58.44;99917.72;5040916;28;20071;-92
2022/05/03 00:49:16;;;;;;;8.02;7.18;;;;;;;14.01;58.98;99915.19;5056461;28;20110;-88
2022/05/03 00:52:22;;;;;;;9.20;6.47;;;;;;;13.99;58.69;99919.88;5074911;28;20024;-92
2022/05/03 00:55:02;;;;;;;7.75;6.53;;;;;;;13.98;58.79;99915.50;5053551;28;20051;-93
2022/05/03 00:57:53;;;;;;;7.30;6.57;;;;;;;13.98;58.77;99915.50;5056875;28;20139;-92
2022/05/03 01:00:20;;;;;;;7.90;6.85;;;;;;;13.97;58.44;99915.69;5056695;28;20470;-92
2022/05/03 01:03:06;;;;;;;8.27;7.05;;;;;;;13.93;58.78;99920.53;5056972;28;20363;-92
2022/05/03 01:05:53;;;;;;;7.95;6.78;;;;;;;13.92;59.01;99915.31;5057004;28;20482;-92
2022/05/03 01:08:33;;;;;;;8.65;6.95;;;;;;;13.84;58.82;99916.13;5074510;28;20021;-94
2022/05/03 01:11:14;;;;;;;8.10;7.20;;;;;;;13.80;59.42;99920.13;5056752;28;20086;-93
2022/05/03 01:13:53;;;;;;;8.80;6.93;;;;;;;13.79;59.25;99918.44;5056727;28;20020;-90
2022/05/03 01:16:39;;;;;;;8.15;6.95;;;;;;;13.75;58.51;99919.78;5057064;28;20078;-92
2022/05/03 01:19:19;;;;;;;7.25;6.55;;;;;;;13.70;58.68;99922.91;5074490;28;20048;-93
2022/05/03 01:22:04;;;;;;;7.68;6.88;;;;;;;13.65;57.84;99922.53;5056733;28;20020;-93
2022/05/03 01:24:54;;;;;;;7.13;6.43;;;;;;;13.56;58.20;99918.13;5056969;28;20027;-93
2022/05/03 01:27:37;;;;;;;8.90;7.38;;;;;;;13.52;58.63;99911.38;5074695;28;20033;-92
2022/05/03 01:30:03;;;;;;;7.38;6.57;;;;;;;13.55;59.17;99917.28;5056413;28;20115;-93
2022/05/03 01:32:31;;;;;;;9.25;7.07;;;;;;;13.60;58.59;99922.19;5056452;28;20060;-93
2022/05/03 01:34:57;;;;;;;8.07;7.28;;;;;;;13.55;58.44;99919.97;5039652;28;20024;-91
2022/05/03 01:37:50;;;;;;;9.90;7.57;;;;;;;13.50;58.59;99916.06;5039703;28;20028;-92
2022/05/03 01:40:24;;;;;;;7.38;6.57;;;;;;;13.55;58.78;99913.75;5039794;28;20024;-93
2022/05/03 01:43:01;;;;;;;8.80;6.80;;;;;;;13.53;58.87;99916.59;5056689;28;20111;-91
2022/05/03 01:45:41;;;;;;;7.75;6.93;;;;;;;13.49;59.02;99917.91;5074129;28;20032;-93
2022/05/03 01:50:18;;;;;;;7.93;7.13;;;;;;;13.48;59.59;99918.91;5039616;28;20027;-91
2022/05/03 01:51:24;;;;;;;7.82;6.90;;;;;;;13.45;59.61;99919.22;5059065;28;20103;-92
2022/05/03 01:54:13;;;;;;;9.95;7.30;;;;;;;13.44;59.54;99922.91;5039300;28;20050;-90
2022/05/03 01:57:00;;;;;;;8.38;7.57;;;;;;;13.41;59.05;99917.84;5026006;28;20036;-94
2022/05/03 01:59:50;;;;;;;8.88;7.30;;;;;;;13.38;59.84;99909.28;5040127;28;20029;-91
2022/05/03 02:02:54;;;;;;;8.27;7.38;;;;;;;13.37;59.61;99913.81;5060548;28;20028;-92
2022/05/03 02:05:53;;;;;;;7.70;6.60;;;;;;;13.36;59.88;99916.66;5060119;28;20028;-91
2022/05/03 02:08:20;;;;;;;8.90;7.07;;;;;;;13.35;60.10;99917.66;5043409;28;20482;-93
2022/05/03 02:11:15;;;;;;;8.32;6.85;;;;;;;13.34;59.43;99910.59;5060561;28;20048;-90
2022/05/03 02:16:53;;;;;;;8.30;7.05;;;;;;;13.29;59.91;99902.16;5063643;28;20030;-92
2022/05/03 02:19:39;;;;;;;8.35;6.80;;;;;;;13.22;60.11;99905.44;5059989;28;20059;-91
2022/05/03 02:22:28;;;;;;;9.85;7.45;;;;;;;13.27;60.13;99913.06;5039331;28;20029;-92
2022/05/03 02:24:53;;;;;;;8.82;6.85;;;;;;;13.32;60.28;99907.22;5043376;28;20070;-92
2022/05/03 02:27:19;;;;;;;9.07;7.05;;;;;;;13.28;60.02;99904.00;5059809;28;20025;-92
2022/05/03 02:29:46;;;;;;;8.25;7.43;;;;;;;13.11;60.67;99908.34;5043071;28;20033;-92
2022/05/03 02:32:13;;;;;;;8.30;7.32;;;;;;;13.18;60.54;99906.75;5059905;28;20020;-92
2022/05/03 02:34:48;;;;;;;8.57;7.03;;;;;;;13.21;59.94;99903.75;5077471;28;20017;-92
2022/05/03 02:37:17;;;;;;;7.93;6.95;;;;;;;13.17;60.19;99901.53;5043053;28;20102;-92
2022/05/03 02:40:02;;;;;;;8.15;7.32;;;;;;;13.11;60.34;99907.50;5043124;28;20103;-91
2022/05/03 02:42:28;;;;;;;9.82;7.00;;;;;;;13.06;60.32;99912.50;5043006;28;20028;-90
2022/05/03 02:44:56;;;;;;;8.43;7.45;;;;;;;13.07;60.09;99906.97;5043529;28;20027;-92
2022/05/03 02:47:44;;;;;;;8.52;7.20;;;;;;;13.04;60.23;99907.28;5042858;28;20470;-89
2022/05/03 02:50:12;;;;;;;8.18;7.10;;;;;;;13.06;60.23;99913.34;5059542;28;20032;-92
2022/05/03 02:53:21;;;;;;;8.32;7.32;;;;;;;12.98;60.18;99910.59;5042740;28;20040;-92
2022/05/03 02:55:52;;;;;;;9.70;7.28;;;;;;;13.04;60.71;99903.75;5015602;28;20030;-92
2022/05/03 02:58:30;;;;;;;9.40;7.35;;;;;;;13.02;59.91;99906.59;5048699;28;20052;-92
2022/05/03 03:03:59;;;;;;;9.15;7.70;;;;;;;12.94;60.56;99890.41;5077371;28;20078;-91
2022/05/03 03:06:24;;;;;;;8.45;7.22;;;;;;;12.96;60.49;99899.16;5059211;28;20089;-93
2022/05/03 03:08:54;;;;;;;8.75;6.97;;;;;;;12.88;60.66;99899.09;5042283;28;20033;-91
2022/05/03 03:11:31;;;;;;;7.97;7.18;;;;;;;12.95;61.35;99897.47;5058586;28;20060;-90
2022/05/03 03:13:57;;;;;;;8.63;7.25;;;;;;;12.92;61.01;99895.94;5059534;28;20082;-92
2022/05/03 03:16:29;;;;;;;8.20;7.32;;;;;;;12.87;60.83;99898.25;5076698;28;20025;-92
2022/05/03 03:18:56;;;;;;;9.65;7.82;;;;;;;12.85;60.71;99907.44;5042276;28;20021;-93
2022/05/03 03:21:25;;;;;;;9.98;7.90;;;;;;;12.81;60.52;99901.56;5042082;28;20031;-92
2022/05/03 03:23:51;;;;;;;8.38;7.50;;;;;;;12.83;60.61;99898.72;5058979;28;20036;-92
2022/05/03 03:26:17;;;;;;;8.20;7.32;;;;;;;12.83;60.79;99901.41;5042032;28;20040;-92
2022/05/03 03:28:44;;;;;;;9.23;7.57;;;;;;;12.84;60.70;99895.88;5058718;28;20029;-93
2022/05/03 03:31:10;;;;;;;8.65;7.40;;;;;;;12.81;60.86;99888.13;5041901;28;20033;-90
2022/05/03 03:33:36;;;;;;;7.88;7.18;;;;;;;12.80;61.00;99899.88;5042024;28;20446;-93
2022/05/03 03:36:02;;;;;;;9.35;7.30;;;;;;;12.82;60.71;99900.56;5058797;28;20531;-91
2022/05/03 03:38:34;;;;;;;8.75;7.47;;;;;;;12.77;60.92;99894.81;5058594;28;20044;-92
2022/05/03 03:40:59;;;;;;;9.05;7.25;;;;;;;12.78;60.96;99898.34;5058527;28;20035;-92
2022/05/03 03:43:25;;;;;;;8.60;7.70;;;;;;;12.72;60.66;99897.06;5058745;28;20016;-91
2022/05/03 03:45:50;;;;;;;8.68;7.53;;;;;;;12.68;61.19;99901.06;5076213;28;20025;-92
2022/05/03 03:48:16;;;;;;;7.82;7.03;;;;;;;12.68;61.28;99900.22;5058573;28;20075;-93
2022/05/03 03:50:43;;;;;;;10.35;7.50;;;;;;;12.61;61.11;99892.78;5058855;28;20372;-91
2022/05/03 03:53:09;;;;;;;9.68;7.25;;;;;;;12.58;61.22;99894.94;5058329;28;20043;-92
2022/05/03 03:55:34;;;;;;;8.35;7.30;;;;;;;12.53;61.22;99897.22;5076219;28;20024;-92
2022/05/03 03:58:00;;;;;;;9.20;7.30;;;;;;;12.56;60.99;99903.13;5058228;28;20112;-90
2022/05/03 04:00:26;;;;;;;8.05;7.05;;;;;;;12.54;60.91;99905.13;5041553;28;20040;-89
2022/05/03 04:02:51;;;;;;;7.95;7.10;;;;;;;12.50;60.91;99902.91;5041392;28;20013;-92
2022/05/03 04:05:22;;;;;;;9.82;7.53;;;;;;;12.51;61.32;99901.91;5040454;28;20032;-88
2022/05/03 04:07:48;;;;;;;8.27;7.40;;;;;;;12.50;61.40;99901.06;5038919;28;20033;-87
2022/05/03 04:10:13;;;;;;;8.98;7.80;;;;;;;12.48;61.53;99900.38;5055868;28;20083;-87
2022/05/03 04:12:39;;;;;;;8.52;7.55;;;;;;;12.44;61.30;99895.47;5039238;28;20037;-87
2022/05/03 04:15:05;;;;;;;8.57;7.40;;;;;;;12.44;61.26;99890.09;5038978;28;20028;-87
2022/05/03 04:17:30;;;;;;;8.02;7.22;;;;;;;12.47;60.90;99898.69;5072159;28;20642;-87
2022/05/03 04:19:56;;;;;;;7.80;6.93;;;;;;;12.42;61.85;99902.81;5039281;28;20115;-88
2022/05/03 04:22:28;;;;;;;9.10;7.45;;;;;;;12.23;61.73;99904.59;5038154;28;20082;-88
2022/05/03 04:24:53;;;;;;;9.77;8.00;;;;;;;12.06;62.21;99910.75;5038998;28;20034;-87
2022/05/03 04:27:20;;;;;;;9.13;7.57;;;;;;;12.17;61.91;99909.72;5038520;28;20025;-88
2022/05/03 04:29:45;;;;;;;9.25;7.60;;;;;;;12.24;62.22;99902.75;5039176;28;20462;-87
2022/05/03 04:32:10;;;;;;;8.63;7.40;;;;;;;12.24;61.74;99918.84;5073197;28;20028;-88
2022/05/03 04:34:36;;;;;;;9.10;6.82;;;;;;;12.28;61.89;99915.72;5073239;28;20048;-87
2022/05/03 04:37:01;;;;;;;8.32;7.40;;;;;;;12.25;61.76;99923.22;5038408;28;20466;-87
2022/05/03 04:39:26;;;;;;;7.82;7.00;;;;;;;12.24;61.60;99914.31;5055287;28;20169;-86
2022/05/03 04:41:52;;;;;;;10.50;7.25;;;;;;;12.24;61.98;99927.72;5055284;28;20120;-87
2022/05/03 04:44:17;;;;;;;11.02;7.93;;;;;;;12.27;61.56;99923.91;5038641;28;20052;-87
2022/05/03 04:46:42;;;;;;;12.52;8.30;;;;;;;12.25;61.56;99921.38;5038379;28;20032;-86
2022/05/03 04:49:08;;;;;;;8.30;7.22;;;;;;;12.27;61.75;99922.06;5038359;28;20032;-88
2022/05/03 04:51:33;;;;;;;9.10;7.78;;;;;;;12.28;61.43;99930.97;5038306;28;20031;-88
2022/05/03 04:53:58;;;;;;;9.80;7.45;;;;;;;12.29;61.79;99938.84;5038217;28;20195;-87
2022/05/03 04:56:25;;;;;;;8.30;6.78;;;;;;;12.30;61.91;99934.38;5038548;28;20092;-88
2022/05/03 04:58:51;;;;;;;7.88;7.07;;;;;;;12.29;61.88;99935.31;5055063;28;20024;-86
2022/05/03 05:01:19;;;;;;;9.25;6.85;;;;;;;12.13;62.51;99945.84;5054951;28;20040;-88
2022/05/03 05:03:44;;;;;;;8.30;7.28;;;;;;;12.09;62.71;99939.09;5036500;28;20028;-88
2022/05/03 05:06:10;;;;;;;8.73;7.60;;;;;;;12.07;62.41;99949.13;5016786;28;20029;-86
2022/05/03 05:08:37;;;;;;;8.93;7.25;;;;;;;12.11;62.36;99958.56;5034593;28;20051;-87
2022/05/03 05:11:03;;;;;;;9.48;7.40;;;;;;;12.04;63.00;99944.91;5015086;28;20022;-86
2022/05/03 05:13:29;;;;;;;10.02;6.88;;;;;;;12.16;62.69;99951.75;5014489;28;20096;-88
2022/05/03 05:15:55;;;;;;;8.60;7.57;;;;;;;12.19;62.93;99951.47;5015366;28;20104;-88
2022/05/03 05:18:20;;;;;;;7.95;7.15;;;;;;;12.18;62.16;99960.50;5043572;28;20036;-87
2022/05/03 05:20:46;;;;;;;8.15;6.45;;;;;;;12.14;62.39;99953.75;5018112;28;20021;-88
2022/05/03 05:23:11;;;;;;;7.72;6.95;;;;;;;12.10;62.56;99956.88;5017754;28;20087;-88
2022/05/03 05:25:36;;;;;;;7.65;6.45;;;;;;;12.00;62.64;99961.44;5018114;28;20052;-87
2022/05/03 05:28:02;;;;;;;7.55;6.40;;;;;;;12.07;62.70;99965.22;5034092;28;20116;-87
2022/05/03 05:30:27;;;;;;;8.63;7.00;;;;;;;12.01;62.55;99963.13;5011907;28;20025;-89
2022/05/03 05:32:53;;;;;;;7.85;6.82;;;;;;;12.03;62.77;99969.19;5027674;28;20075;-88
2022/05/03 05:35:19;;;;;;;8.80;6.68;;;;;;;12.14;62.65;99963.63;5017783;28;20421;-88
2022/05/03 05:37:44;;;;;;;6.78;6.07;;;;;;;12.00;62.41;99964.97;5021618;28;20252;-86
2022/05/03 05:40:10;;;;;;;7.50;6.53;;;;;;;11.99;62.57;99974.00;5033828;28;20029;-87
2022/05/03 05:42:35;;;;;;;7.93;5.68;;;;;;;12.03;61.83;99970.03;5034337;28;20025;-86
2022/05/03 05:45:00;;;;;;;7.82;5.90;;;;;;;12.11;61.73;99969.28;5017729;28;20151;-88
2022/05/03 05:47:27;;;;;;;6.68;6.03;;;;;;;12.01;61.41;99969.31;5024794;28;20394;-88
2022/05/03 05:49:52;;;;;;;7.47;6.32;;;;;;;11.93;61.64;99966.53;5033807;28;20029;-88
2022/05/03 05:55:02;;;;;;;6.22;5.05;;;;;;;11.94;62.29;99961.03;5031094;28;20563;-87
2022/05/03 05:57:27;;;;;;;7.20;5.88;;;;;;;11.96;62.46;99960.88;5012542;28;20045;-87
2022/05/03 05:59:53;;;;;;;6.00;5.40;;;;;;;12.11;62.26;99961.25;5011712;28;20028;-87
2022/05/03 06:02:18;;;;;;;7.75;6.15;;;;;;;12.14;61.62;99960.94;5014942;28;20170;-88
2022/05/03 06:04:43;;;;;;;6.00;5.40;;;;;;;12.21;61.90;99962.88;5017641;28;20017;-87
2022/05/03 06:07:09;;;;;;;7.28;5.75;;;;;;;12.26;61.86;99959.75;5017022;28;20037;-88
2022/05/03 06:09:35;;;;;;;9.10;5.45;;;;;;;12.30;61.68;99963.84;5013673;28;20032;-87
2022/05/03 06:12:01;;;;;;;7.30;5.75;;;;;;;12.38;61.60;99971.16;5008761;28;20380;-87
2022/05/03 06:14:26;;;;;;;8.43;6.10;;;;;;;12.35;61.55;99971.47;5035103;28;20136;-86
2022/05/03 06:16:54;;;;;;;5.95;5.28;;;;;;;12.31;61.33;99972.75;5034878;28;20060;-87
2022/05/03 06:19:19;;;;;;;8.63;5.65;;;;;;;12.33;61.49;99971.59;5051475;28;20104;-87
2022/05/03 06:21:45;;;;;;;8.93;6.03;;;;;;;12.35;61.84;99977.66;5018907;28;20520;-87
2022/05/03 06:24:11;;;;;;;7.53;5.90;;;;;;;12.39;61.51;99973.69;5017883;28;20421;-87
2022/05/03 06:26:36;;;;;;;6.78;6.07;;;;;;;12.32;61.64;99980.66;5018455;28;20471;-87
2022/05/03 06:29:02;;;;;;;8.02;6.05;;;;;;;12.44;61.71;99978.59;5015524;28;20123;-87
2022/05/03 06:31:28;;;;;;;7.15;6.35;;;;;;;12.38;61.50;99972.00;5035049;28;20025;-87
2022/05/03 06:33:54;;;;;;;7.22;6.13;;;;;;;12.35;61.95;99979.50;5027774;28;20029;-86
2022/05/03 06:36:20;;;;;;;8.57;6.47;;;;;;;12.38;61.80;99979.19;5031331;28;20033;-75
2022/05/03 06:38:45;;;;;;;9.45;6.35;;;;;;;12.28;61.62;99985.44;5054165;28;20052;-95
2022/05/03 06:41:12;;;;;;;8.77;6.22;;;;;;;12.27;61.91;99981.06;5015965;28;20104;-89
2022/05/03 06:43:37;;;;;;;7.25;5.90;;;;;;;12.23;61.73;99989.53;5020160;28;20037;-92
2022/05/03 06:46:03;;;;;;;7.43;5.88;;;;;;;12.26;61.85;99991.94;5036117;28;20047;-91
2022/05/03 06:48:28;;;;;;;8.90;6.57;;;;;;;12.25;60.54;99991.09;5007331;28;20471;-92
2022/05/03 06:50:54;;;;;;;6.85;6.03;;;;;;;12.20;60.06;99992.53;5003261;28;20096;-95
2022/05/03 06:53:19;;;;;;;6.82;5.68;;;;;;;12.27;60.07;99999.81;5002893;28;20061;-94
2022/05/03 06:55:44;;;;;;;6.28;5.63;;;;;;;12.25;59.77;99992.94;5019619;28;20036;-90
2022/05/03 06:58:10;;;;;;;8.68;5.47;;;;;;;12.35;59.75;99995.59;5019401;28;20112;-95
2022/05/03 07:00:35;;;;;;;8.10;5.68;;;;;;;12.40;59.68;99996.84;5019529;28;20084;-92
2022/05/03 07:03:00;;;;;;;6.95;5.57;;;;;;;12.38;59.34;99996.13;5003080;28;20080;-90
2022/05/03 07:05:26;;;;;;;10.57;5.72;;;;;;;12.29;59.62;99997.84;5019465;28;20038;-88
2022/05/03 07:07:51;;;;;;;8.15;5.93;;;;;;;12.42;59.27;99994.00;5019594;28;20036;-92
2022/05/03 07:10:17;;;;;;;9.07;5.45;;;;;;;12.46;59.59;99993.56;5019000;28;20476;-93
2022/05/03 07:12:42;;;;;;;7.15;5.65;;;;;;;12.43;59.50;99996.53;5002839;28;20502;-94
2022/05/03 07:15:08;;;;;;;6.53;5.13;;;;;;;12.50;59.12;100000.31;5019434;28;20032;-94
2022/05/03 07:23:02;;;;;;;6.22;5.38;;;;;;;12.41;58.63;100005.72;5040735;28;20076;-89
2022/05/03 07:25:28;;;;;;;8.40;5.45;;;;;;;12.44;58.85;100010.78;5023822;28;20053;-88
2022/05/03 07:27:53;;;;;;;8.73;5.25;;;;;;;12.56;58.72;100002.38;5043023;28;20049;-83
2022/05/03 07:30:19;;;;;;;6.88;5.60;;;;;;;12.55;58.89;100005.22;5020128;28;20018;-86
2022/05/03 07:32:45;;;;;;;7.13;5.45;;;;;;;12.67;59.06;100003.16;5029275;28;20020;-89
2022/05/03 07:35:11;;;;;;;8.57;5.65;;;;;;;12.77;58.84;100006.63;5035253;28;20028;-87
2022/05/03 07:37:37;;;;;;;9.88;6.22;;;;;;;12.68;58.56;100008.38;5032522;28;20352;-92
2022/05/03 07:40:06;;;;;;;7.70;5.40;;;;;;;12.69;57.88;100015.44;5047214;28;20035;-83
2022/05/03 07:42:31;;;;;;;9.15;5.50;;;;;;;12.70;57.44;100017.13;5042565;28;20064;-85
2022/05/03 07:44:56;;;;;;;6.68;5.53;;;;;;;12.72;57.79;100008.94;5042564;28;20040;-82
2022/05/03 07:47:22;;;;;;;6.43;5.78;;;;;;;12.72;58.30;100015.13;5044916;28;20129;-84
2022/05/03 07:49:48;;;;;;;6.65;5.30;;;;;;;12.78;58.27;100017.25;5045916;28;20029;-83
2022/05/03 07:52:13;;;;;;;8.10;5.70;;;;;;;12.85;57.45;100018.34;5033984;28;20018;-94
2022/05/03 07:54:43;;;;;;;7.18;5.28;;;;;;;12.81;57.14;100011.59;5062678;28;20059;-95
2022/05/03 07:57:09;;;;;;;6.63;5.43;;;;;;;12.81;56.94;100014.25;5050771;28;20467;-96
2022/05/03 07:59:34;;;;;;;6.40;5.53;;;;;;;12.84;57.35;100013.97;5048063;28;20047;-95
2022/05/03 08:02:00;;;;;;;7.82;5.38;;;;;;;12.83;57.15;100017.63;5046200;28;20092;-95
2022/05/03 08:04:26;;;;;;;6.03;5.40;;;;;;;12.75;56.81;100014.84;5031438;28;20070;-95
2022/05/03 08:06:51;;;;;;;8.25;5.65;;;;;;;12.80;57.45;100023.31;5028458;28;20029;-94
2022/05/03 08:09:17;;;;;;;7.22;5.32;;;;;;;12.85;57.11;100018.34;5032473;28;20064;-95
2022/05/03 08:11:42;;;;;;;6.20;4.97;;;;;;;12.92;57.03;100021.25;5040635;28;20025;-91
2022/05/03 08:14:08;;;;;;;7.30;5.65;;;;;;;12.87;57.10;100021.72;5021338;28;20531;-93
2022/05/03 08:16:33;;;;;;;8.77;5.47;;;;;;;12.91;56.88;100027.63;5039389;28;20025;-88
2022/05/03 08:18:59;;;;;;;7.93;5.22;;;;;;;13.01;56.40;100020.34;5036286;28;20028;-92
2022/05/03 08:21:24;;;;;;;6.80;5.72;;;;;;;12.99;56.61;100016.97;5019546;28;20061;-87
2022/05/03 08:23:50;;;;;;;7.78;5.45;;;;;;;13.02;56.82;100026.56;5017832;28;20029;-92
2022/05/03 08:26:15;;;;;;;6.80;5.68;;;;;;;13.03;56.44;100023.72;5002526;28;20494;-96
2022/05/03 08:28:42;;;;;;;5.93;5.13;;;;;;;13.02;56.59;100029.25;5035718;28;20090;-92
2022/05/03 08:31:10;;;;;;;6.57;5.43;;;;;;;12.98;56.77;100022.50;5002607;28;20116;-96
2022/05/03 08:33:35;;;;;;;7.10;5.60;;;;;;;12.86;56.23;100027.22;5017965;28;20460;-91
2022/05/03 08:36:01;;;;;;;6.07;5.47;;;;;;;12.85;56.79;100028.22;5001349;28;20033;-93
2022/05/03 08:43:54;;;;;;;7.10;5.20;;;;;;;12.84;55.80;100029.22;5020970;28;20136;-90
2022/05/03 08:46:21;;;;;;;6.15;4.95;;;;;;;12.81;55.01;100026.84;5017062;28;20124;-84
2022/05/03 08:48:49;;;;;;;8.57;4.60;;;;;;;12.83;54.98;100027.53;5017252;28;20387;-83
2022/05/03 08:51:21;;;;;;;6.18;4.68;;;;;;;12.89;54.63;100029.59;5027141;28;20021;-83
2022/05/03 08:53:47;;;;;;;7.28;4.65;;;;;;;12.96;54.35;100029.84;5036193;28;20041;-83
2022/05/03 08:56:12;;;;;;;7.13;5.20;;;;;;;13.05;55.04;100035.16;5020296;28;20032;-82
2022/05/03 08:58:38;;;;;;;6.07;4.70;;;;;;;13.08;54.82;100036.69;5037020;28;20029;-92
2022/05/03 09:01:04;;;;;;;5.53;4.65;;;;;;;13.09;54.55;100038.38;5019837;28;20127;-83
2022/05/03 09:03:30;;;;;;;6.45;4.47;;;;;;;13.13;54.88;100037.91;5035382;28;20158;-82
2022/05/03 09:05:55;;;;;;;5.93;5.32;;;;;;;13.19;54.69;100037.34;5036394;28;20408;-84
2022/05/03 09:08:23;;;;;;;5.20;4.45;;;;;;;13.21;54.42;100042.56;5019110;28;20029;-83
2022/05/03 09:10:48;;;;;;;5.35;4.22;;;;;;;13.19;53.88;100050.75;5034701;28;20021;-83
2022/05/03 09:13:14;;;;;;;5.72;4.32;;;;;;;13.15;53.67;100043.13;5017235;28;20033;-88
2022/05/03 09:15:40;;;;;;;5.63;5.00;;;;;;;13.11;53.74;100042.59;5035741;28;20025;-80
2022/05/03 09:18:05;;;;;;;4.90;4.40;;;;;;;13.20;54.23;100046.22;5035172;28;20082;-82
2022/05/03 09:26:16;;;;;;;6.05;4.57;;;;;;;13.32;54.47;100046.88;5027290;28;20047;-80
2022/05/03 09:28:48;;;;;;;7.72;4.72;;;;;;;13.33;54.00;100044.03;5053434;28;20028;-81
2022/05/03 09:31:15;;;;;;;6.97;5.00;;;;;;;13.42;54.09;100050.31;5032680;28;20033;-84
2022/05/03 09:33:41;;;;;;;6.93;5.18;;;;;;;13.41;53.71;100048.63;5016429;28;20031;-81
2022/05/03 09:36:11;;;;;;;8.63;4.80;;;;;;;13.40;53.92;100039.75;5007695;28;20045;-80
2022/05/03 09:38:50;;;;;;;6.40;5.32;;;;;;;13.40;53.54;100038.91;5032102;28;20025;-84
2022/05/03 09:41:16;;;;;;;6.18;4.72;;;;;;;13.42;53.95;100035.06;5015943;28;20080;-83
2022/05/03 09:44:01;;;;;;;5.07;4.55;;;;;;;13.49;52.64;100041.50;5015789;28;20017;-85
2022/05/03 09:46:28;;;;;;;10.15;5.15;;;;;;;13.45;52.25;100042.81;5015916;28;20393;-87
2022/05/03 09:48:56;;;;;;;6.97;4.47;;;;;;;13.43;51.41;100038.59;5015350;28;20037;-81
2022/05/03 09:51:24;;;;;;;5.32;4.05;;;;;;;13.41;51.49;100033.38;5031986;28;20022;-81
2022/05/03 09:53:58;;;;;;;5.13;4.15;;;;;;;13.45;52.26;100037.44;5013453;28;20053;-81
2022/05/03 09:56:24;;;;;;;6.00;3.88;;;;;;;13.54;51.36;100041.88;5014533;28;20075;-87
2022/05/03 09:58:55;;;;;;;5.30;3.30;;;;;;;13.56;49.92;100033.66;5014906;28;20037;-84
2022/05/03 10:01:21;;;;;;;4.40;3.08;;;;;;;13.66;50.47;100031.72;5014600;28;20483;-80
2022/05/03 10:03:47;;;;;;;3.65;2.85;;;;;;;13.71;50.07;100026.72;4997976;28;20036;-83
2022/05/03 10:06:14;;;;;;;5.07;3.22;;;;;;;13.77;50.28;100014.53;4998277;28;20044;-80
2022/05/03 10:08:39;;;;;;;4.93;3.30;;;;;;;13.83;50.34;100022.81;4997919;28;20025;-81
2022/05/03 10:11:05;;;;;;;5.22;3.60;;;;;;;13.87;50.08;100034.09;5014409;28;20125;-80
2022/05/03 10:13:30;;;;;;;3.65;3.10;;;;;;;13.89;49.68;100025.88;5014672;28;20075;-81
2022/05/03 10:21:31;;;;;;;4.50;3.58;;;;;;;13.99;49.67;100030.13;5019663;28;20037;-81
2022/05/03 10:24:05;;;;;;;4.93;3.53;;;;;;;13.95;49.83;100019.84;5018219;28;20021;-80
2022/05/03 10:26:54;;;;;;;5.13;3.60;;;;;;;13.99;50.24;100029.28;5001421;28;20070;-84
2022/05/03 10:29:20;;;;;;;;;;;;;;;13.98;50.48;100025.75;5018733;28;20044;-81
2022/05/03 10:31:56;;;;;;;6.70;3.42;;;;;;;14.06;50.68;100023.13;5018099;28;20314;-84
2022/05/03 10:34:40;;;;;;;4.10;3.70;;;;;;;14.10;49.69;100024.47;5035575;28;20026;-80
2022/05/03 10:37:08;;;;;;;3.92;3.08;;;;;;;14.07;49.99;100019.41;5034369;28;20068;-91
2022/05/03 10:39:34;;;;;;;3.92;3.25;;;;;;;14.13;49.82;100023.31;5017972;28;20406;-80
2022/05/03 10:42:02;;;;;;;4.18;3.25;;;;;;;14.17;49.24;100019.31;5018003;28;20082;-80
2022/05/03 10:44:52;;;;;;;5.70;3.55;;;;;;;14.14;49.21;100011.56;5017823;28;20387;-82
2022/05/03 10:47:20;;;;;;;3.95;3.55;;;;;;;14.10;48.66;100007.50;5035217;28;20071;-83
2022/05/03 10:50:10;;;;;;;5.60;3.70;;;;;;;14.14;48.72;100007.03;5017773;28;20029;-80
2022/05/03 10:52:35;;;;;;;4.45;3.30;;;;;;;14.14;49.13;100004.34;5034779;28;20116;-81
2022/05/03 10:55:08;;;;;;;6.25;3.22;;;;;;;14.23;48.52;100005.25;5017684;28;20113;-81
2022/05/03 10:58:11;;;;;;;4.78;3.70;;;;;;;14.24;48.88;100004.25;5017700;28;20021;-88
2022/05/03 11:01:16;;;;;;;4.50;3.45;;;;;;;14.30;48.69;99997.38;5034253;28;20056;-81
2022/05/03 11:03:48;;;;;;;4.07;3.33;;;;;;;14.41;48.75;100003.31;5035034;28;20017;-81
2022/05/03 11:06:17;;;;;;;5.38;3.67;;;;;;;14.42;49.04;99999.66;5034858;28;20040;-80
2022/05/03 11:08:57;;;;;;;4.45;4.03;;;;;;;14.41;48.74;99992.56;5034718;28;20460;-81
2022/05/03 11:14:25;;;;;;;4.20;3.28;;;;;;;14.42;49.76;99993.38;5034797;28;20036;-80
2022/05/03 11:17:04;;;;;;;5.53;4.57;;;;;;;14.47;48.27;99996.47;5016764;28;20029;-81
2022/05/03 11:19:30;;;;;;;9.30;4.50;;;;;;;14.53;48.75;99997.66;5033435;28;20057;-82
2022/05/03 11:21:58;;;;;;;4.38;3.60;;;;;;;14.58;48.51;99987.25;5017068;28;20365;-81
2022/05/03 11:24:32;;;;;;;5.10;3.80;;;;;;;14.51;48.96;99987.06;5016978;28;20071;-81
2022/05/03 11:27:01;;;;;;;4.65;3.83;;;;;;;14.52;48.62;99982.53;5000490;28;20028;-81
2022/05/03 11:29:30;;;;;;;;;;;;;;;14.60;48.72;99978.00;5017120;28;20044;-81
2022/05/03 11:31:58;;;;;;;6.13;4.53;;;;;;;14.67;48.52;99975.53;5016209;28;19948;-84
2022/05/03 11:34:23;;;;;;;5.15;4.65;;;;;;;14.71;47.43;99969.66;5024581;28;20463;-81
2022/05/03 11:36:52;;;;;;;6.85;5.10;;;;;;;14.76;47.59;99980.78;5037362;28;20029;-82
2022/05/03 11:39:18;;;;;;;5.65;5.03;;;;;;;14.74;46.92;99965.78;5033508;28;20470;-82
2022/05/03 11:41:43;;;;;;;8.98;4.82;;;;;;;14.77;47.97;99971.69;5021053;28;20039;-81
2022/05/03 11:44:09;;;;;;;6.72;5.53;;;;;;;14.72;47.12;99968.66;5053688;28;20453;-81
2022/05/03 11:46:34;;;;;;;5.75;5.13;;;;;;;14.73;47.69;99970.34;5019520;28;20036;-85
2022/05/03 11:49:03;;;;;;;6.30;5.25;;;;;;;14.78;47.34;99959.06;5036010;28;20032;-83
2022/05/03 11:57:07;;;;;;;7.15;5.45;;;;;;;14.91;47.97;99950.50;5018663;28;20422;-81
2022/05/03 11:59:33;;;;;;;5.68;5.07;;;;;;;14.96;47.27;99959.78;5005623;28;20017;-81
2022/05/03 12:02:15;;;;;;;7.57;5.57;;;;;;;14.97;48.04;99945.31;5027506;28;20390;-81
2022/05/03 12:05:06;;;;;;;5.60;5.00;;;;;;;15.01;48.19;99938.56;5007718;28;20422;-81
2022/05/03 12:07:54;;;;;;;6.53;5.85;;;;;;;15.10;47.12;99934.03;5031517;28;20039;-85
2022/05/03 12:10:36;;;;;;;6.80;5.55;;;;;;;15.14;47.66;99942.66;5015768;28;20059;-81
2022/05/03 12:13:17;;;;;;;7.65;5.43;;;;;;;15.22;46.48;99934.56;5031541;28;20383;-87
2022/05/03 12:15:47;;;;;;;6.45;5.22;;;;;;;15.08;46.87;99934.19;5016251;28;20024;-80
2022/05/03 12:18:15;;;;;;;5.93;4.93;;;;;;;15.09;46.79;99935.88;5027623;28;20451;-82
2022/05/03 12:20:43;;;;;;;6.77;4.63;;;;;;;15.10;47.64;99924.09;5034959;28;20036;-82
2022/05/03 12:23:19;;;;;;;7.32;5.03;;;;;;;15.17;47.42;99936.91;5031236;28;20017;-81
2022/05/03 12:25:47;;;;;;;7.97;4.93;;;;;;;15.15;46.88;99926.31;5034584;28;20036;-81